Time;durP1;ratioP1;P1;durP2;ratioP2;P2;SDS_P1;SDS_P2;PMS_P1;PMS_P2;Temp;Humidity;BMP_temperature;BMP_pressure;BME280_temperature;BME280_humidity;BME280_pressure;Samples;Min_cycle;Max_cycle;Signal;HPM_P1;HPM_P2
2023/10/31 00:02:11;;;;;;;1.60;1.50;;;;;;;;;;5039206;28;20236;-57
2023/10/31 00:04:39;;;;;;;1.52;1.42;;;;;;;;;;5039242;28;20205;-57
2023/10/31 00:07:06;;;;;;;1.83;1.60;;;;;;;;;;5037508;28;20291;-57
2023/10/31 00:09:39;;;;;;;1.50;1.40;;;;;;;;;;5019457;28;20206;-57
2023/10/31 00:12:07;;;;;;;2.08;1.48;;;;;;;;;;5019315;28;20202;-57
2023/10/31 00:14:35;;;;;;;1.50;1.40;;;;;;;;;;5019175;28;20213;-57
2023/10/31 00:17:03;;;;;;;1.77;1.45;;;;;;;;;;5019140;28;20241;-57
2023/10/31 00:19:31;;;;;;;1.60;1.50;;;;;;;;;;5018807;28;20301;-57
2023/10/31 00:21:58;;;;;;;1.88;1.77;;;;;;;;;;5019175;28;20230;-57
2023/10/31 00:24:26;;;;;;;2.03;1.70;;;;;;;;;;5019067;28;20288;-57
2023/10/31 00:26:55;;;;;;;1.63;1.50;;;;;;;;;;5019117;28;20583;-57
2023/10/31 00:29:22;;;;;;;1.83;1.70;;;;;;;;;;5018849;28;20206;-57
2023/10/31 00:31:51;;;;;;;1.70;1.60;;;;;;;;;;5019103;28;20237;-57
2023/10/31 00:34:18;;;;;;;1.52;1.42;;;;;;;;;;5019108;28;20715;-57
2023/10/31 00:36:47;;;;;;;1.52;1.42;;;;;;;;;;5019241;28;20237;-57
2023/10/31 00:39:17;;;;;;;1.60;1.38;;;;;;;;;;5019083;28;20216;-57
2023/10/31 00:41:46;;;;;;;1.60;1.50;;;;;;;;;;5017844;28;20241;-57
2023/10/31 00:44:15;;;;;;;1.50;1.40;;;;;;;;;;5018047;28;20210;-57
2023/10/31 00:46:43;;;;;;;1.63;1.52;;;;;;;;;;5018582;28;20257;-57
2023/10/31 00:49:12;;;;;;;1.70;1.60;;;;;;;;;;5018500;28;20206;-57
2023/10/31 00:51:39;;;;;;;1.50;1.40;;;;;;;;;;5018348;28;20238;-57
2023/10/31 00:54:07;;;;;;;1.65;1.55;;;;;;;;;;5019022;28;20217;-57
2023/10/31 00:56:35;;;;;;;1.48;1.38;;;;;;;;;;5018634;28;20206;-57
2023/10/31 00:59:03;;;;;;;1.70;1.60;;;;;;;;;;5019249;28;20285;-57
2023/10/31 01:01:32;;;;;;;1.50;1.40;;;;;;;;;;5018501;28;20276;-57
2023/10/31 01:04:00;;;;;;;1.40;1.30;;;;;;;;;;5018497;28;20273;-57
2023/10/31 01:06:27;;;;;;;1.50;1.40;;;;;;;;;;5018751;28;20216;-57
2023/10/31 01:08:55;;;;;;;1.50;1.40;;;;;;;;;;5018252;28;20234;-57
2023/10/31 01:11:22;;;;;;;1.55;1.45;;;;;;;;;;5018024;28;20210;-57
2023/10/31 01:13:50;;;;;;;1.63;1.40;;;;;;;;;;5018575;28;20297;-57
2023/10/31 01:16:18;;;;;;;1.38;1.27;;;;;;;;;;5018232;28;20592;-57
2023/10/31 01:18:47;;;;;;;1.60;1.50;;;;;;;;;;5017854;28;20210;-57
2023/10/31 01:21:14;;;;;;;1.50;1.40;;;;;;;;;;5017856;28;20217;-57
2023/10/31 01:23:41;;;;;;;1.50;1.40;;;;;;;;;;5017717;28;20574;-57
2023/10/31 01:26:09;;;;;;;1.55;1.45;;;;;;;;;;5018148;28;20206;-57
2023/10/31 01:28:37;;;;;;;1.60;1.40;;;;;;;;;;5018318;28;20297;-57
2023/10/31 01:31:04;;;;;;;1.45;1.35;;;;;;;;;;5017694;28;20260;-57
2023/10/31 01:33:32;;;;;;;1.35;1.25;;;;;;;;;;5022136;28;20202;-57
2023/10/31 01:36:01;;;;;;;1.40;1.30;;;;;;;;;;5037702;28;20213;-57
2023/10/31 01:38:28;;;;;;;1.33;1.23;;;;;;;;;;5037744;28;20304;-57
2023/10/31 01:40:55;;;;;;;1.55;1.25;;;;;;;;;;5037898;28;20255;-57
2023/10/31 01:43:33;;;;;;;1.88;1.40;;;;;;;;;;5037718;28;20316;-57
2023/10/31 01:46:00;;;;;;;1.30;1.20;;;;;;;;;;5037817;28;20232;-57
2023/10/31 01:48:29;;;;;;;1.30;1.20;;;;;;;;;;5037685;28;20248;-57
2023/10/31 01:50:58;;;;;;;1.15;1.05;;;;;;;;;;5037460;28;20213;-57
2023/10/31 01:53:28;;;;;;;1.30;1.20;;;;;;;;;;5037403;28;20285;-57
2023/10/31 01:55:57;;;;;;;1.55;1.45;;;;;;;;;;5037582;28;20206;-57
2023/10/31 01:58:27;;;;;;;1.30;1.20;;;;;;;;;;5037700;28;20287;-57
2023/10/31 02:00:56;;;;;;;1.30;1.20;;;;;;;;;;5037767;28;20213;-57
2023/10/31 02:03:24;;;;;;;1.42;1.33;;;;;;;;;;5037784;28;20225;-57
2023/10/31 02:05:53;;;;;;;1.30;1.20;;;;;;;;;;5036804;28;20210;-56
2023/10/31 02:08:21;;;;;;;1.33;1.23;;;;;;;;;;5037551;28;20206;-57
2023/10/31 02:10:51;;;;;;;1.30;1.20;;;;;;;;;;5037704;28;20218;-57
2023/10/31 02:13:19;;;;;;;1.08;1.08;;;;;;;;;;5037133;28;20202;-57
2023/10/31 02:15:47;;;;;;;1.55;1.20;;;;;;;;;;5037045;28;20220;-57
2023/10/31 02:18:15;;;;;;;1.30;1.20;;;;;;;;;;5037352;28;20689;-57
2023/10/31 02:20:43;;;;;;;1.40;1.10;;;;;;;;;;5036970;28;20206;-57
2023/10/31 02:23:13;;;;;;;1.17;1.08;;;;;;;;;;5036708;28;20563;-57
2023/10/31 02:25:41;;;;;;;1.30;1.20;;;;;;;;;;5037188;28;20202;-57
2023/10/31 02:28:08;;;;;;;1.45;1.35;;;;;;;;;;5037274;28;20228;-57
2023/10/31 02:30:37;;;;;;;1.10;1.00;;;;;;;;;;5037163;28;20232;-57
2023/10/31 02:33:04;;;;;;;1.35;0.95;;;;;;;;;;5036990;28;20215;-57
2023/10/31 02:35:33;;;;;;;1.30;1.20;;;;;;;;;;5036870;28;20219;-57
2023/10/31 02:38:00;;;;;;;1.08;1.00;;;;;;;;;;5036743;28;20701;-57
2023/10/31 02:40:30;;;;;;;1.25;1.13;;;;;;;;;;5037265;28;20328;-57
2023/10/31 02:42:57;;;;;;;1.02;1.00;;;;;;;;;;5037085;28;20229;-57
2023/10/31 02:45:25;;;;;;;1.17;1.10;;;;;;;;;;5037022;28;20216;-57
2023/10/31 02:47:53;;;;;;;1.20;1.10;;;;;;;;;;5037224;28;20581;-57
2023/10/31 02:50:21;;;;;;;0.95;0.90;;;;;;;;;;5036783;28;20206;-57
2023/10/31 02:52:49;;;;;;;1.20;1.10;;;;;;;;;;5036671;28;20233;-57
2023/10/31 02:55:17;;;;;;;1.08;0.90;;;;;;;;;;5037206;28;20205;-57
2023/10/31 02:57:46;;;;;;;1.67;1.00;;;;;;;;;;5037142;28;20223;-57
2023/10/31 03:00:15;;;;;;;1.13;1.02;;;;;;;;;;5037004;28;20205;-57
2023/10/31 03:02:43;;;;;;;1.00;1.00;;;;;;;;;;5036825;28;20225;-57
2023/10/31 03:05:11;;;;;;;1.00;0.98;;;;;;;;;;5036869;28;20407;-57
2023/10/31 03:07:38;;;;;;;1.23;1.13;;;;;;;;;;5037095;28;20240;-57
2023/10/31 03:10:06;;;;;;;0.85;0.85;;;;;;;;;;5036818;28;20205;-57
2023/10/31 03:12:34;;;;;;;0.95;0.90;;;;;;;;;;5036785;28;20209;-56
2023/10/31 03:15:04;;;;;;;1.00;1.00;;;;;;;;;;5036652;28;20217;-56
2023/10/31 03:17:32;;;;;;;0.90;0.90;;;;;;;;;;5037050;28;20321;-56
2023/10/31 03:19:59;;;;;;;1.20;1.10;;;;;;;;;;5036646;28;20205;-57
2023/10/31 03:22:27;;;;;;;1.10;0.95;;;;;;;;;;5036873;28;20229;-57
2023/10/31 03:24:55;;;;;;;1.13;1.02;;;;;;;;;;5037111;28;20201;-57
2023/10/31 03:27:23;;;;;;;1.00;1.00;;;;;;;;;;5040043;28;20217;-57
2023/10/31 03:29:51;;;;;;;0.90;0.90;;;;;;;;;;5040006;28;20209;-57
2023/10/31 03:32:20;;;;;;;0.80;0.80;;;;;;;;;;5039937;28;20209;-57
2023/10/31 03:34:48;;;;;;;0.80;0.80;;;;;;;;;;5039725;28;20252;-57
2023/10/31 03:37:15;;;;;;;0.90;0.90;;;;;;;;;;5040343;28;20565;-57
2023/10/31 03:39:43;;;;;;;0.75;0.75;;;;;;;;;;5039906;28;20213;-57
2023/10/31 03:42:11;;;;;;;0.80;0.80;;;;;;;;;;5039599;28;20252;-57
2023/10/31 03:44:38;;;;;;;0.85;0.82;;;;;;;;;;5039919;28;20635;-57
2023/10/31 03:47:06;;;;;;;0.95;0.80;;;;;;;;;;5040227;28;20212;-57
2023/10/31 03:49:35;;;;;;;0.70;0.70;;;;;;;;;;5039998;28;20344;-57
2023/10/31 03:52:03;;;;;;;0.60;0.60;;;;;;;;;;5040185;28;20225;-57
2023/10/31 03:54:31;;;;;;;0.77;0.77;;;;;;;;;;5039818;28;20213;-57
2023/10/31 03:56:58;;;;;;;0.80;0.80;;;;;;;;;;5039622;28;20288;-57
2023/10/31 03:59:26;;;;;;;0.60;0.60;;;;;;;;;;5039763;28;20644;-57
2023/10/31 04:01:54;;;;;;;0.77;0.77;;;;;;;;;;5039542;28;20296;-57
2023/10/31 04:04:21;;;;;;;0.55;0.55;;;;;;;;;;5039605;28;20210;-57
2023/10/31 04:06:50;;;;;;;0.75;0.75;;;;;;;;;;5039610;28;20216;-57
2023/10/31 04:09:19;;;;;;;0.73;0.73;;;;;;;;;;5039710;28;20292;-58
2023/10/31 04:11:46;;;;;;;0.70;0.70;;;;;;;;;;5039871;28;20205;-57
2023/10/31 04:14:14;;;;;;;0.70;0.70;;;;;;;;;;5039792;28;20209;-57
2023/10/31 04:16:45;;;;;;;0.65;0.65;;;;;;;;;;5039937;28;20205;-57
2023/10/31 04:19:13;;;;;;;0.63;0.63;;;;;;;;;;5039941;28;20570;-57
2023/10/31 04:21:41;;;;;;;0.70;0.70;;;;;;;;;;5039621;28;20216;-57
2023/10/31 04:24:11;;;;;;;0.80;0.80;;;;;;;;;;5039196;28;20279;-57
2023/10/31 04:26:38;;;;;;;0.77;0.77;;;;;;;;;;5039618;28;20296;-57
2023/10/31 04:29:06;;;;;;;0.80;0.60;;;;;;;;;;5039483;28;20281;-57
2023/10/31 04:31:34;;;;;;;0.60;0.60;;;;;;;;;;5038421;28;20256;-57
2023/10/31 04:34:02;;;;;;;1.00;0.80;;;;;;;;;;5039124;28;20206;-57
2023/10/31 04:36:30;;;;;;;0.63;0.60;;;;;;;;;;5038831;28;20220;-57
2023/10/31 04:38:58;;;;;;;0.70;0.70;;;;;;;;;;5038692;28;20281;-57
2023/10/31 04:41:27;;;;;;;1.08;0.60;;;;;;;;;;5039397;28;20796;-57
2023/10/31 04:43:55;;;;;;;0.85;0.70;;;;;;;;;;5038980;28;20229;-57
2023/10/31 04:46:23;;;;;;;0.77;0.73;;;;;;;;;;5026468;28;20209;-57
2023/10/31 04:48:50;;;;;;;0.60;0.60;;;;;;;;;;5018922;28;20601;-57
2023/10/31 04:51:18;;;;;;;0.82;0.70;;;;;;;;;;5018931;28;20656;-57
2023/10/31 04:53:45;;;;;;;0.60;0.60;;;;;;;;;;5019174;28;20210;-57
2023/10/31 04:56:14;;;;;;;0.50;0.50;;;;;;;;;;5019259;28;20306;-57
2023/10/31 04:58:43;;;;;;;0.60;0.60;;;;;;;;;;5019421;28;20481;-57
2023/10/31 05:01:10;;;;;;;1.13;0.73;;;;;;;;;;5019014;28;20214;-57
2023/10/31 05:03:38;;;;;;;0.82;0.63;;;;;;;;;;5034288;28;20637;-57
2023/10/31 05:06:07;;;;;;;1.20;0.60;;;;;;;;;;5038544;28;20608;-57
2023/10/31 05:08:34;;;;;;;0.50;0.50;;;;;;;;;;5036849;28;20589;-57
2023/10/31 05:11:02;;;;;;;0.55;0.55;;;;;;;;;;5038036;28;20202;-57
2023/10/31 05:13:29;;;;;;;0.70;0.60;;;;;;;;;;5038480;28;20197;-57
2023/10/31 05:15:58;;;;;;;0.60;0.60;;;;;;;;;;5038558;28;20202;-57
2023/10/31 05:18:26;;;;;;;0.60;0.60;;;;;;;;;;5038492;28;20288;-57
2023/10/31 05:20:54;;;;;;;0.50;0.50;;;;;;;;;;5038466;28;20647;-58
2023/10/31 05:23:21;;;;;;;0.40;0.40;;;;;;;;;;5038339;28;20229;-57
2023/10/31 05:25:48;;;;;;;0.52;0.50;;;;;;;;;;5037846;28;20201;-57
2023/10/31 05:28:16;;;;;;;0.43;0.43;;;;;;;;;;5038269;28;20217;-57
2023/10/31 05:30:43;;;;;;;0.95;0.47;;;;;;;;;;5038378;28;20206;-57
2023/10/31 05:33:12;;;;;;;0.60;0.40;;;;;;;;;;5038044;28;20209;-57
2023/10/31 05:35:39;;;;;;;0.50;0.50;;;;;;;;;;5038356;28;20236;-57
2023/10/31 05:38:06;;;;;;;0.68;0.68;;;;;;;;;;5037811;28;20597;-57
2023/10/31 05:40:35;;;;;;;0.50;0.50;;;;;;;;;;5037620;28;20205;-57
2023/10/31 05:43:02;;;;;;;0.85;0.52;;;;;;;;;;5037774;28;20621;-57
2023/10/31 05:45:30;;;;;;;0.50;0.50;;;;;;;;;;5037453;28;20300;-58
2023/10/31 05:47:57;;;;;;;0.50;0.50;;;;;;;;;;5037588;28;20210;-57
2023/10/31 05:50:26;;;;;;;0.50;0.50;;;;;;;;;;5037545;28;20212;-57
2023/10/31 05:52:53;;;;;;;0.50;0.50;;;;;;;;;;5037137;28;20242;-57
2023/10/31 05:55:20;;;;;;;0.65;0.60;;;;;;;;;;5037297;28;20654;-57
2023/10/31 05:57:48;;;;;;;0.50;0.50;;;;;;;;;;5037588;28;20212;-57
2023/10/31 06:00:15;;;;;;;0.63;0.40;;;;;;;;;;5037725;28;20201;-57
2023/10/31 06:02:43;;;;;;;0.40;0.40;;;;;;;;;;5037061;28;20234;-58
2023/10/31 06:05:10;;;;;;;0.45;0.45;;;;;;;;;;5036779;28;20209;-57
2023/10/31 06:07:39;;;;;;;0.60;0.60;;;;;;;;;;5037227;28;20205;-57
2023/10/31 06:10:07;;;;;;;0.80;0.50;;;;;;;;;;5037673;28;20217;-57
2023/10/31 06:12:34;;;;;;;0.50;0.50;;;;;;;;;;5036574;28;20259;-57
2023/10/31 06:15:01;;;;;;;0.40;0.40;;;;;;;;;;5037345;28;20648;-57
2023/10/31 06:17:30;;;;;;;0.40;0.40;;;;;;;;;;5037321;28;20205;-58
2023/10/31 06:19:57;;;;;;;0.50;0.50;;;;;;;;;;5036967;28;20202;-57
2023/10/31 06:22:25;;;;;;;0.35;0.35;;;;;;;;;;5037574;28;20259;-57
2023/10/31 06:24:54;;;;;;;0.35;0.35;;;;;;;;;;5037639;28;20229;-57
2023/10/31 06:27:21;;;;;;;0.50;0.38;;;;;;;;;;5026635;28;20206;-57
2023/10/31 06:29:48;;;;;;;0.47;0.47;;;;;;;;;;5017272;28;20237;-58
2023/10/31 06:32:16;;;;;;;1.02;0.50;;;;;;;;;;5017350;28;20206;-57
2023/10/31 06:34:43;;;;;;;0.43;0.43;;;;;;;;;;5017379;28;20203;-57
2023/10/31 06:37:11;;;;;;;0.30;0.30;;;;;;;;;;5017319;28;20214;-57
2023/10/31 06:39:38;;;;;;;0.45;0.45;;;;;;;;;;5017473;28;20335;-57
2023/10/31 06:42:07;;;;;;;0.50;0.40;;;;;;;;;;5017691;28;20217;-57
2023/10/31 06:44:34;;;;;;;0.47;0.47;;;;;;;;;;5017574;28;20506;-58
2023/10/31 06:47:01;;;;;;;0.30;0.30;;;;;;;;;;5017485;28;20210;-57
2023/10/31 06:49:29;;;;;;;0.40;0.40;;;;;;;;;;5017485;28;20206;-57
2023/10/31 06:51:56;;;;;;;0.50;0.50;;;;;;;;;;5016687;28;20234;-57
2023/10/31 06:54:23;;;;;;;0.35;0.30;;;;;;;;;;5016126;28;20303;-57
2023/10/31 06:56:51;;;;;;;0.32;0.32;;;;;;;;;;5016236;28;20225;-57
2023/10/31 06:59:20;;;;;;;0.40;0.40;;;;;;;;;;5017364;28;20206;-57
2023/10/31 07:01:47;;;;;;;0.40;0.40;;;;;;;;;;5020611;28;20304;-57
2023/10/31 07:04:16;;;;;;;0.40;0.40;;;;;;;;;;5021222;28;20230;-57
2023/10/31 07:06:44;;;;;;;0.30;0.30;;;;;;;;;;5020812;28;20206;-57
2023/10/31 07:09:11;;;;;;;0.70;0.40;;;;;;;;;;5020527;28;20210;-57
2023/10/31 07:11:38;;;;;;;0.40;0.40;;;;;;;;;;5020253;28;20202;-57
2023/10/31 07:14:06;;;;;;;0.85;0.50;;;;;;;;;;5020780;28;20539;-57
2023/10/31 07:16:35;;;;;;;0.30;0.30;;;;;;;;;;5020636;28;20221;-57
2023/10/31 07:19:02;;;;;;;1.08;0.35;;;;;;;;;;5020607;28;20225;-57
2023/10/31 07:21:30;;;;;;;0.40;0.40;;;;;;;;;;5021997;28;20210;-57
2023/10/31 07:23:57;;;;;;;0.40;0.40;;;;;;;;;;5040237;28;20229;-57
2023/10/31 07:26:25;;;;;;;0.40;0.40;;;;;;;;;;5040448;28;20501;-57
2023/10/31 07:28:52;;;;;;;0.30;0.30;;;;;;;;;;5040782;28;20206;-57
2023/10/31 07:31:20;;;;;;;0.40;0.40;;;;;;;;;;5026482;28;20206;-57
2023/10/31 07:33:48;;;;;;;0.30;0.30;;;;;;;;;;5020798;28;20206;-57
2023/10/31 07:36:16;;;;;;;0.60;0.43;;;;;;;;;;5020610;28;20217;-58
2023/10/31 07:38:43;;;;;;;0.40;0.40;;;;;;;;;;5020373;28;20206;-57
2023/10/31 07:41:10;;;;;;;0.68;0.43;;;;;;;;;;5020431;28;20206;-57
2023/10/31 07:43:38;;;;;;;0.40;0.40;;;;;;;;;;5020081;28;20222;-57
2023/10/31 07:46:05;;;;;;;0.60;0.47;;;;;;;;;;5020420;28;20218;-57
2023/10/31 07:48:33;;;;;;;0.40;0.40;;;;;;;;;;5020007;28;20210;-57
2023/10/31 07:51:02;;;;;;;0.40;0.38;;;;;;;;;;5019775;28;20206;-57
2023/10/31 07:53:29;;;;;;;0.30;0.30;;;;;;;;;;5019397;28;20202;-57
2023/10/31 07:55:57;;;;;;;0.30;0.30;;;;;;;;;;5020138;28;20214;-57
2023/10/31 07:58:24;;;;;;;0.40;0.40;;;;;;;;;;5019640;28;20215;-57
2023/10/31 08:00:51;;;;;;;0.50;0.50;;;;;;;;;;5020081;28;20210;-57
2023/10/31 08:03:19;;;;;;;0.30;0.30;;;;;;;;;;5019787;28;20574;-57
2023/10/31 08:05:46;;;;;;;0.60;0.30;;;;;;;;;;5019803;28;20238;-57
2023/10/31 08:08:15;;;;;;;0.63;0.50;;;;;;;;;;5019233;28;20206;-57
2023/10/31 08:10:42;;;;;;;0.57;0.30;;;;;;;;;;5019427;28;20487;-57
2023/10/31 08:13:10;;;;;;;0.32;0.32;;;;;;;;;;5018445;28;20202;-57
2023/10/31 08:15:37;;;;;;;0.45;0.40;;;;;;;;;;5019839;28;20199;-57
2023/10/31 08:18:05;;;;;;;0.70;0.43;;;;;;;;;;5019742;28;20241;-57
2023/10/31 08:20:33;;;;;;;0.25;0.25;;;;;;;;;;5019558;28;20213;-57
2023/10/31 08:23:01;;;;;;;0.50;0.30;;;;;;;;;;5019429;28;20214;-57
2023/10/31 08:25:30;;;;;;;0.60;0.45;;;;;;;;;;5018651;28;20233;-57
2023/10/31 08:27:57;;;;;;;0.35;0.35;;;;;;;;;;5019118;28;20466;-57
2023/10/31 08:30:25;;;;;;;0.43;0.40;;;;;;;;;;5019070;28;20246;-57
2023/10/31 08:32:53;;;;;;;0.40;0.40;;;;;;;;;;5019028;28;20206;-57
2023/10/31 08:35:21;;;;;;;0.30;0.30;;;;;;;;;;5019205;28;20467;-57
2023/10/31 08:37:48;;;;;;;0.55;0.32;;;;;;;;;;5018791;28;20207;-57
2023/10/31 08:40:15;;;;;;;0.43;0.30;;;;;;;;;;5018777;28;20217;-57
2023/10/31 08:42:45;;;;;;;0.40;0.40;;;;;;;;;;5018730;28;20206;-57
2023/10/31 08:45:12;;;;;;;0.93;0.40;;;;;;;;;;5018577;28;20665;-57
2023/10/31 08:47:39;;;;;;;0.77;0.30;;;;;;;;;;5017951;28;20202;-57
2023/10/31 08:50:08;;;;;;;0.65;0.40;;;;;;;;;;5018827;28;20207;-57
2023/10/31 08:52:35;;;;;;;0.40;0.40;;;;;;;;;;5017768;28;20612;-57
2023/10/31 08:55:03;;;;;;;0.32;0.30;;;;;;;;;;5018790;28;20214;-57
2023/10/31 08:57:31;;;;;;;0.40;0.40;;;;;;;;;;5018532;28;20282;-57
2023/10/31 08:59:59;;;;;;;0.65;0.50;;;;;;;;;;5018422;28;20198;-57
2023/10/31 09:02:27;;;;;;;0.30;0.30;;;;;;;;;;5018861;28;20206;-57
2023/10/31 09:04:54;;;;;;;0.32;0.30;;;;;;;;;;5018603;28;20230;-57
2023/10/31 09:07:21;;;;;;;0.30;0.30;;;;;;;;;;5018201;28;20206;-57
2023/10/31 09:09:49;;;;;;;0.73;0.55;;;;;;;;;;5017707;28;20469;-57
2023/10/31 09:12:16;;;;;;;0.30;0.30;;;;;;;;;;5018000;28;20206;-57
2023/10/31 09:14:43;;;;;;;0.40;0.40;;;;;;;;;;5018010;28;20479;-57
2023/10/31 09:17:12;;;;;;;0.45;0.32;;;;;;;;;;5029364;28;20206;-57
2023/10/31 09:19:40;;;;;;;0.40;0.32;;;;;;;;;;5037111;28;20241;-57
2023/10/31 09:22:07;;;;;;;0.40;0.40;;;;;;;;;;5037162;28;20213;-57
2023/10/31 09:24:35;;;;;;;0.77;0.45;;;;;;;;;;5037502;28;20237;-57
2023/10/31 09:27:02;;;;;;;0.50;0.50;;;;;;;;;;5037441;28;20206;-57
2023/10/31 09:29:29;;;;;;;1.13;0.40;;;;;;;;;;5037899;28;20293;-57
2023/10/31 09:31:57;;;;;;;2.05;0.40;;;;;;;;;;5037394;28;20221;-57
2023/10/31 09:34:25;;;;;;;1.55;0.40;;;;;;;;;;5037663;28;20202;-57
2023/10/31 09:36:53;;;;;;;0.52;0.40;;;;;;;;;;5037535;28;20295;-57
2023/10/31 09:39:22;;;;;;;1.63;0.35;;;;;;;;;;5037642;28;20573;-57
2023/10/31 09:41:50;;;;;;;1.38;0.57;;;;;;;;;;5037416;28;20205;-57
2023/10/31 09:44:17;;;;;;;0.40;0.30;;;;;;;;;;5036329;28;20232;-57
2023/10/31 09:46:45;;;;;;;1.27;0.40;;;;;;;;;;5036589;28;20217;-57
2023/10/31 09:49:12;;;;;;;0.60;0.40;;;;;;;;;;5036622;28;20209;-58
2023/10/31 09:51:41;;;;;;;2.05;0.50;;;;;;;;;;5036741;28;20225;-57
2023/10/31 09:54:09;;;;;;;0.68;0.40;;;;;;;;;;5037010;28;20201;-57
2023/10/31 09:56:37;;;;;;;0.40;0.40;;;;;;;;;;5036942;28;20517;-57
2023/10/31 09:59:06;;;;;;;0.52;0.40;;;;;;;;;;5037120;28;20201;-57
2023/10/31 10:01:33;;;;;;;0.70;0.40;;;;;;;;;;5037401;28;20206;-57
2023/10/31 10:04:01;;;;;;;1.00;0.32;;;;;;;;;;5036756;28;20205;-57
2023/10/31 10:06:28;;;;;;;0.95;0.40;;;;;;;;;;5036796;28;20201;-57
2023/10/31 10:08:58;;;;;;;0.32;0.32;;;;;;;;;;5036747;28;20212;-57
2023/10/31 10:11:26;;;;;;;0.75;0.60;;;;;;;;;;5036968;28;20205;-57
2023/10/31 10:13:53;;;;;;;1.40;0.40;;;;;;;;;;5036630;28;20206;-57
2023/10/31 10:16:30;;;;;;;1.15;0.52;;;;;;;;;;5036546;28;20206;-57
2023/10/31 10:18:57;;;;;;;1.42;0.40;;;;;;;;;;5036678;28;20229;-57
2023/10/31 10:21:24;;;;;;;0.95;0.40;;;;;;;;;;5036105;28;20205;-57
2023/10/31 10:23:53;;;;;;;0.73;0.50;;;;;;;;;;5036174;28;20209;-57
2023/10/31 10:26:25;;;;;;;0.75;0.43;;;;;;;;;;5036359;28;20577;-57
2023/10/31 10:28:54;;;;;;;1.17;0.45;;;;;;;;;;5036564;28;20248;-57
2023/10/31 10:31:21;;;;;;;0.65;0.40;;;;;;;;;;5036238;28;20212;-57
2023/10/31 10:33:49;;;;;;;0.60;0.40;;;;;;;;;;5035936;28;20229;-57
2023/10/31 10:36:16;;;;;;;1.05;0.40;;;;;;;;;;5035200;28;20198;-57
2023/10/31 10:38:45;;;;;;;0.85;0.65;;;;;;;;;;5035377;28;20213;-57
2023/10/31 10:41:14;;;;;;;0.68;0.50;;;;;;;;;;5034460;28;20225;-57
2023/10/31 10:43:43;;;;;;;1.85;0.50;;;;;;;;;;5035917;28;20223;-57
2023/10/31 10:46:14;;;;;;;0.77;0.40;;;;;;;;;;5035814;28;20229;-57
2023/10/31 10:48:44;;;;;;;0.80;0.50;;;;;;;;;;5034620;28;20198;-57
2023/10/31 10:51:17;;;;;;;0.55;0.50;;;;;;;;;;5035716;28;20796;-57
2023/10/31 10:53:50;;;;;;;1.58;0.73;;;;;;;;;;5035600;28;20296;-57
2023/10/31 10:56:21;;;;;;;1.40;0.50;;;;;;;;;;5035389;28;20643;-57
2023/10/31 10:58:54;;;;;;;0.77;0.50;;;;;;;;;;5035405;28;20308;-57
2023/10/31 11:01:22;;;;;;;1.75;0.90;;;;;;;;;;5035858;28;20632;-57
2023/10/31 11:03:50;;;;;;;1.33;0.80;;;;;;;;;;5035934;28;20202;-57
2023/10/31 11:06:18;;;;;;;0.40;0.40;;;;;;;;;;5035673;28;20257;-57
2023/10/31 11:08:46;;;;;;;0.50;0.40;;;;;;;;;;5035861;28;20206;-57
2023/10/31 11:11:15;;;;;;;0.82;0.43;;;;;;;;;;5035996;28;20531;-57
2023/10/31 11:13:44;;;;;;;1.95;0.80;;;;;;;;;;5035149;28;20210;-57
2023/10/31 11:16:14;;;;;;;0.60;0.50;;;;;;;;;;5036325;28;20256;-57
2023/10/31 11:18:42;;;;;;;1.00;0.60;;;;;;;;;;5036053;28;20212;-57
2023/10/31 11:21:10;;;;;;;0.80;0.60;;;;;;;;;;5036150;28;20616;-57
2023/10/31 11:23:39;;;;;;;1.33;0.50;;;;;;;;;;5035882;28;20696;-57
2023/10/31 11:26:09;;;;;;;0.75;0.57;;;;;;;;;;5035752;28;20230;-57
2023/10/31 11:28:37;;;;;;;0.98;0.70;;;;;;;;;;5036275;28;20205;-57
2023/10/31 11:31:07;;;;;;;0.95;0.50;;;;;;;;;;5036406;28;20201;-57
2023/10/31 11:33:40;;;;;;;0.75;0.60;;;;;;;;;;5035952;28;20206;-57
2023/10/31 11:36:08;;;;;;;1.00;0.52;;;;;;;;;;5035892;28;20261;-57
2023/10/31 11:38:38;;;;;;;2.00;0.57;;;;;;;;;;5035619;28;20205;-57
2023/10/31 11:41:08;;;;;;;0.70;0.60;;;;;;;;;;5034564;28;20288;-57
2023/10/31 11:43:52;;;;;;;1.15;0.50;;;;;;;;;;5034799;28;20205;-57
2023/10/31 11:46:20;;;;;;;0.57;0.40;;;;;;;;;;5036016;28;20233;-57
2023/10/31 11:48:50;;;;;;;1.27;0.50;;;;;;;;;;5039103;28;20213;-57
2023/10/31 11:51:17;;;;;;;0.70;0.60;;;;;;;;;;5038618;28;20344;-57
2023/10/31 11:53:45;;;;;;;1.52;0.50;;;;;;;;;;5038671;28;20206;-57
2023/10/31 11:56:13;;;;;;;0.82;0.43;;;;;;;;;;5038513;28;20608;-57
2023/10/31 11:58:41;;;;;;;1.02;0.50;;;;;;;;;;5037913;28;20601;-57
2023/10/31 12:01:09;;;;;;;0.80;0.70;;;;;;;;;;5038240;28;20674;-57
2023/10/31 12:03:40;;;;;;;0.90;0.55;;;;;;;;;;5038199;28;20574;-57
2023/10/31 12:06:10;;;;;;;0.60;0.60;;;;;;;;;;5039055;28;20622;-57
2023/10/31 12:08:38;;;;;;;0.50;0.40;;;;;;;;;;5039226;28;20206;-57
2023/10/31 12:11:09;;;;;;;0.40;0.40;;;;;;;;;;5038470;28;20455;-57
2023/10/31 12:13:38;;;;;;;0.50;0.50;;;;;;;;;;5038429;28;20495;-57
2023/10/31 12:16:06;;;;;;;1.50;0.50;;;;;;;;;;5038059;28;20624;-57
2023/10/31 12:18:35;;;;;;;1.15;0.43;;;;;;;;;;5038510;28;20593;-57
2023/10/31 12:21:02;;;;;;;1.23;0.60;;;;;;;;;;5033343;28;20237;-57
2023/10/31 12:23:31;;;;;;;0.75;0.68;;;;;;;;;;5018363;28;20494;-57
2023/10/31 12:25:59;;;;;;;0.40;0.40;;;;;;;;;;5034912;28;20243;-57
2023/10/31 12:28:28;;;;;;;0.85;0.55;;;;;;;;;;5038102;28;20213;-57
2023/10/31 12:30:59;;;;;;;1.35;0.57;;;;;;;;;;5038328;28;20209;-57
2023/10/31 12:33:27;;;;;;;1.23;0.50;;;;;;;;;;5037491;28;20214;-57
2023/10/31 12:35:58;;;;;;;0.60;0.38;;;;;;;;;;5033768;28;20198;-57
2023/10/31 12:38:26;;;;;;;0.40;0.40;;;;;;;;;;5018235;28;20214;-57
2023/10/31 12:40:55;;;;;;;1.63;0.57;;;;;;;;;;5018211;28;20842;-57
2023/10/31 12:43:23;;;;;;;1.50;0.60;;;;;;;;;;5018585;28;20238;-57
2023/10/31 12:45:51;;;;;;;0.55;0.50;;;;;;;;;;5018461;28;20241;-57
2023/10/31 12:48:18;;;;;;;1.10;0.50;;;;;;;;;;5018012;28;20199;-57
2023/10/31 12:50:46;;;;;;;1.08;0.63;;;;;;;;;;5017831;28;20271;-57
2023/10/31 12:53:24;;;;;;;0.85;0.40;;;;;;;;;;5017754;28;20245;-57
2023/10/31 12:55:52;;;;;;;0.45;0.40;;;;;;;;;;5017677;28;20288;-57
2023/10/31 12:58:23;;;;;;;0.55;0.50;;;;;;;;;;5016472;28;20214;-58
2023/10/31 13:00:51;;;;;;;0.80;0.60;;;;;;;;;;5017703;28;20221;-57
2023/10/31 13:03:20;;;;;;;0.60;0.50;;;;;;;;;;5017880;28;20601;-57
2023/10/31 13:05:47;;;;;;;0.65;0.40;;;;;;;;;;5018258;28;20270;-57
2023/10/31 13:08:15;;;;;;;0.52;0.50;;;;;;;;;;5017853;28;20207;-58
2023/10/31 13:10:44;;;;;;;0.90;0.60;;;;;;;;;;5017967;28;20207;-58
2023/10/31 13:13:12;;;;;;;1.83;0.50;;;;;;;;;;5017500;28;20305;-57
2023/10/31 13:15:41;;;;;;;0.73;0.40;;;;;;;;;;5017797;28;20195;-57
2023/10/31 13:18:11;;;;;;;0.90;0.50;;;;;;;;;;5017125;28;20685;-57
2023/10/31 13:20:38;;;;;;;0.50;0.50;;;;;;;;;;5017073;28;20206;-57
2023/10/31 13:23:07;;;;;;;0.73;0.50;;;;;;;;;;5016613;28;20205;-57
2023/10/31 13:25:34;;;;;;;1.92;0.80;;;;;;;;;;5017145;28;20253;-57
2023/10/31 13:28:03;;;;;;;1.65;0.68;;;;;;;;;;5016895;28;20210;-57
2023/10/31 13:30:31;;;;;;;1.13;0.57;;;;;;;;;;5016682;28;20202;-57
2023/10/31 13:33:00;;;;;;;0.60;0.55;;;;;;;;;;5016959;28;20276;-57
2023/10/31 13:35:27;;;;;;;2.15;0.60;;;;;;;;;;5016720;28;20218;-57
2023/10/31 13:37:55;;;;;;;0.93;0.50;;;;;;;;;;5016503;28;20213;-57
2023/10/31 13:40:23;;;;;;;0.82;0.55;;;;;;;;;;5019407;28;20201;-57
2023/10/31 13:42:50;;;;;;;0.68;0.50;;;;;;;;;;5035504;28;20251;-57
2023/10/31 13:45:18;;;;;;;0.50;0.50;;;;;;;;;;5035626;28;20232;-57
2023/10/31 13:47:45;;;;;;;0.55;0.50;;;;;;;;;;5035706;28;20296;-57
2023/10/31 13:50:14;;;;;;;1.02;0.60;;;;;;;;;;5036550;28;20289;-57
2023/10/31 13:52:42;;;;;;;0.90;0.52;;;;;;;;;;5035420;28;20252;-57
2023/10/31 13:55:09;;;;;;;0.70;0.57;;;;;;;;;;5029107;28;20210;-57
2023/10/31 13:57:37;;;;;;;0.60;0.50;;;;;;;;;;5034610;28;20241;-57
2023/10/31 14:00:05;;;;;;;0.82;0.50;;;;;;;;;;5027219;28;20302;-57
2023/10/31 14:02:33;;;;;;;1.92;0.50;;;;;;;;;;5030674;28;20397;-57
2023/10/31 14:05:00;;;;;;;1.40;0.75;;;;;;;;;;5031204;28;20201;-57
2023/10/31 14:07:29;;;;;;;0.40;0.40;;;;;;;;;;5034985;28;20245;-57
2023/10/31 14:09:57;;;;;;;1.90;0.52;;;;;;;;;;5032998;28;20216;-57
2023/10/31 14:12:24;;;;;;;0.43;0.40;;;;;;;;;;5028082;28;20214;-57
2023/10/31 14:14:52;;;;;;;1.00;0.65;;;;;;;;;;5015659;28;20233;-57
2023/10/31 14:17:22;;;;;;;1.95;0.60;;;;;;;;;;5016043;28;20206;-57
2023/10/31 14:19:50;;;;;;;0.52;0.50;;;;;;;;;;5015371;28;20633;-57
2023/10/31 14:22:17;;;;;;;1.05;0.50;;;;;;;;;;5029954;28;20203;-57
2023/10/31 14:24:46;;;;;;;1.15;0.50;;;;;;;;;;5033797;28;20236;-57
2023/10/31 14:27:15;;;;;;;1.20;0.55;;;;;;;;;;5035596;28;20291;-57
2023/10/31 14:29:42;;;;;;;1.30;0.68;;;;;;;;;;5035461;28;20213;-57
2023/10/31 14:32:10;;;;;;;0.77;0.50;;;;;;;;;;5034170;28;20571;-57
2023/10/31 14:34:39;;;;;;;0.90;0.50;;;;;;;;;;5030010;28;20207;-57
2023/10/31 14:37:06;;;;;;;1.15;0.70;;;;;;;;;;5015623;28;20203;-57
2023/10/31 14:39:34;;;;;;;0.60;0.45;;;;;;;;;;5034364;28;20623;-57
2023/10/31 14:42:03;;;;;;;0.95;0.52;;;;;;;;;;5035545;28;20235;-57
2023/10/31 14:44:32;;;;;;;0.63;0.60;;;;;;;;;;5035715;28;20201;-57
2023/10/31 14:47:00;;;;;;;0.80;0.70;;;;;;;;;;5035235;28;20834;-57
2023/10/31 14:49:28;;;;;;;2.60;0.50;;;;;;;;;;5033731;28;20202;-57